Time,TemperatureF,DewpointF,PressureIn,WindDirection,WindDirectionDegrees,WindSpeedMPH,WindSpeedGustMPH,Humidity,HourlyPrecipIn,Conditions,Clouds,dailyrainin,SoftwareType,DateUTC
2013-09-19 00:05:00,53.1,43.9,30.09,North,-999,0.0,0.0,71,0.00,,,-99.99,WeatherLink 5.5,2013-09-19 04:05:00,
2013-09-19 01:05:00,53.1,43.9,30.09,North,-999,0.0,0.0,71,0.00,,,-99.99,WeatherLink 5.5,2013-09-19 05:05:00,
2013-09-19 02:05:00,-999.0,-99.9,30.09,North,-999,0.0,0.0,-999,0.00,,,-99.99,WeatherLink 5.5,2013-09-19 06:05:00,
2013-09-19 03:05:00,-999.0,-99.9,30.08,North,-999,0.0,0.0,-999,0.00,,,-99.99,WeatherLink 5.5,2013-09-19 07:05:00,
2013-09-19 04:05:00,-999.0,-99.9,30.04,North,-999,0.0,0.0,-999,0.00,,,-99.99,WeatherLink 5.5,2013-09-19 08:05:00,
2013-09-19 05:05:00,-999.0,-99.9,30.02,North,-999,0.0,0.0,-999,0.00,,,-99.99,WeatherLink 5.5,2013-09-19 09:05:00,
2013-09-19 06:05:00,-999.0,-99.9,30.03,North,-999,0.0,0.0,-999,0.00,,,-99.99,WeatherLink 5.5,2013-09-19 10:05:00,
2013-09-19 07:05:00,51.1,43.4,30.06,North,-999,0.0,0.0,75,0.00,,,-99.99,WeatherLink 5.5,2013-09-19 11:05:00,
2013-09-19 08:05:00,51.3,44.0,30.08,North,-999,0.0,0.0,76,0.00,,,-99.99,WeatherLink 5.5,2013-09-19 12:05:00,
2013-09-19 09:05:00,56.9,45.3,30.08,North,-999,0.0,0.0,65,0.00,,,-99.99,WeatherLink 5.5,2013-09-19 13:05:00,
2013-09-19 10:05:00,63.5,47.0,30.07,North,-999,0.0,0.0,55,0.00,,,-99.99,WeatherLink 5.5,2013-09-19 14:05:00,
2013-09-19 11:05:00,68.6,49.2,30.06,North,-999,0.0,0.0,50,0.00,,,-99.99,WeatherLink 5.5,2013-09-19 15:05:00,
2013-09-19 12:05:00,74.0,53.1,30.06,North,-999,0.0,0.0,48,0.00,,,-99.99,WeatherLink 5.5,2013-09-19 16:05:00,
2013-09-19 13:05:00,-999.0,-99.9,30.07,North,-999,0.0,0.0,-999,0.00,,,-99.99,WeatherLink 5.5,2013-09-19 17:05:00,
2013-09-19 14:05:00,76.0,53.7,30.01,North,-999,0.0,0.0,46,0.00,,,-99.99,WeatherLink 5.5,2013-09-19 18:05:00,
2013-09-19 15:05:00,-999.0,-99.9,30.03,North,-999,0.0,0.0,-999,0.00,,,-99.99,WeatherLink 5.5,2013-09-19 19:05:00,
2013-09-19 16:05:00,-999.0,-99.9,30.01,North,-999,0.0,0.0,-999,0.00,,,-99.99,WeatherLink 5.5,2013-09-19 20:05:00,
2013-09-19 17:05:00,77.2,46.7,29.95,North,-999,0.0,0.0,34,0.00,,,-99.99,WeatherLink 5.5,2013-09-19 21:05:00,
2013-09-19 18:05:00,75.4,48.7,29.96,North,-999,0.0,0.0,39,0.00,,,-99.99,WeatherLink 5.5,2013-09-19 22:05:00,
2013-09-19 19:05:00,73.2,46.8,29.99,North,-999,0.0,0.0,39,0.00,,,-99.99,WeatherLink 5.5,2013-09-19 23:05:00,
2013-09-19 20:05:00,65.8,42.1,30.00,North,-999,0.0,0.0,42,0.00,,,-99.99,WeatherLink 5.5,2013-09-20 00:05:00,
2013-09-19 21:05:00,-999.0,-99.9,30.01,North,-999,0.0,0.0,-999,0.00,,,-99.99,WeatherLink 5.5,2013-09-20 01:05:00,
2013-09-19 22:05:00,60.7,48.4,30.00,North,-999,0.0,0.0,64,0.00,,,-99.99,WeatherLink 5.5,2013-09-20 02:05:00,
2013-09-19 23:05:00,60.7,48.0,29.99,North,-999,0.0,0.0,63,0.00,,,-99.99,WeatherLink 5.5,2013-09-20 03:05:00,